Time;durP1;ratioP1;P1;durP2;ratioP2;P2;SDS_P1;SDS_P2;PMS_P1;PMS_P2;Temp;Humidity;BMP_temperature;BMP_pressure;BME280_temperature;BME280_humidity;BME280_pressure;Samples;Min_cycle;Max_cycle;Signal;HPM_P1;HPM_P2
2024/02/11 00:00:28;;;;;;;;;;;;;;;15.02;35.68;93660.09;10415690;28;19982;-85
2024/02/11 00:05:28;;;;;;;;;;;;;;;15.19;35.50;93674.66;10441047;28;20328;-84
2024/02/11 00:10:29;;;;;;;;;;;;;;;15.20;35.53;93701.38;10414600;28;20401;-81
2024/02/11 00:15:29;;;;;;;;;;;;;;;15.12;36.25;93709.56;10426152;28;19924;-82
2024/02/11 00:20:31;;;;;;;;;;;;;;;15.12;36.64;93694.09;10390350;28;19921;-79
2024/02/11 00:25:32;;;;;;;;;;;;;;;14.84;37.08;93708.09;10426148;28;19920;-81
2024/02/11 00:30:32;;;;;;;;;;;;;;;14.77;37.82;93678.06;10392187;28;19941;-80
2024/02/11 00:35:34;;;;;;;;;;;;;;;14.46;38.87;93698.03;10419431;28;20019;-82
2024/02/11 00:40:34;;;;;;;;;;;;;;;14.31;39.41;93680.41;10433333;28;19970;-84
2024/02/11 00:45:36;;;;;;;;;;;;;;;14.06;40.18;93668.56;10428896;28;20000;-84
2024/02/11 00:50:37;;;;;;;;;;;;;;;14.06;40.45;93660.47;10421707;28;19998;-84
2024/02/11 00:55:38;;;;;;;;;;;;;;;13.71;41.15;93674.00;10394762;28;19979;-84
2024/02/11 01:00:38;;;;;;;;;;;;;;;13.55;40.86;93681.81;10405064;28;19974;-84
2024/02/11 01:05:38;;;;;;;;;;;;;;;13.79;40.92;93683.22;10437849;28;19920;-84
2024/02/11 01:10:39;;;;;;;;;;;;;;;13.61;41.82;93683.22;10437111;28;20264;-86
2024/02/11 01:15:39;;;;;;;;;;;;;;;13.62;41.54;93679.44;10423600;28;19913;-81
2024/02/11 01:20:39;;;;;;;;;;;;;;;13.68;41.71;93661.16;10449743;28;20000;-83
2024/02/11 01:25:39;;;;;;;;;;;;;;;13.52;42.13;93660.03;10407852;28;20398;-85
2024/02/11 01:30:40;;;;;;;;;;;;;;;13.45;41.78;93674.81;10416005;28;19923;-90
2024/02/11 01:35:41;;;;;;;;;;;;;;;13.52;41.83;93668.94;10426174;28;19940;-84
2024/02/11 01:40:42;;;;;;;;;;;;;;;13.27;42.52;93651.59;10424328;28;19920;-81
2024/02/11 01:45:45;;;;;;;;;;;;;;;13.24;42.94;93649.53;10428954;28;20430;-87
2024/02/11 01:50:52;;;;;;;;;;;;;;;13.23;42.41;93620.94;10416381;28;19917;-85
2024/02/11 01:55:53;;;;;;;;;;;;;;;13.36;42.25;93621.97;10435095;28;19913;-85
2024/02/11 02:00:55;;;;;;;;;;;;;;;13.40;42.95;93599.41;10369638;28;20386;-82
2024/02/11 02:05:55;;;;;;;;;;;;;;;13.56;41.68;93588.13;10417711;28;20551;-84
2024/02/11 02:10:55;;;;;;;;;;;;;;;13.65;41.62;93586.22;10404939;28;20023;-82
2024/02/11 02:15:56;;;;;;;;;;;;;;;13.83;42.09;93570.75;10388911;28;19913;-81
2024/02/11 02:20:56;;;;;;;;;;;;;;;13.79;42.13;93569.81;10395926;28;19913;-80
2024/02/11 02:25:57;;;;;;;;;;;;;;;13.86;41.22;93570.09;10359109;28;19913;-80
2024/02/11 02:30:57;;;;;;;;;;;;;;;13.61;42.18;93602.25;10362482;28;19932;-79
2024/02/11 02:35:57;;;;;;;;;;;;;;;13.58;41.88;93592.09;10427098;28;19929;-85
2024/02/11 02:40:58;;;;;;;;;;;;;;;13.56;41.95;93601.63;10413517;28;19913;-84
2024/02/11 02:45:59;;;;;;;;;;;;;;;13.46;42.52;93584.63;10394553;28;19950;-87
2024/02/11 02:51:00;;;;;;;;;;;;;;;13.42;42.52;93620.69;10419413;28;19960;-84
2024/02/11 02:56:00;;;;;;;;;;;;;;;13.26;43.17;93621.13;10438715;28;19920;-86
2024/02/11 03:01:05;;;;;;;;;;;;;;;13.31;42.53;93634.47;10457359;28;20295;-82
2024/02/11 03:06:16;;;;;;;;;;;;;;;13.35;42.36;93610.34;10430833;28;20400;-84
2024/02/11 03:11:16;;;;;;;;;;;;;;;13.56;41.71;93609.72;10450374;28;19998;-82
2024/02/11 03:16:17;;;;;;;;;;;;;;;13.79;40.77;93613.81;10437065;28;19970;-82
2024/02/11 03:21:20;;;;;;;;;;;;;;;14.05;40.34;93610.25;10452226;28;19940;-82
2024/02/11 03:26:20;;;;;;;;;;;;;;;14.24;40.23;93573.94;10444995;28;20331;-81
2024/02/11 03:31:21;;;;;;;;;;;;;;;14.55;39.01;93573.63;10453974;28;19927;-81
2024/02/11 03:36:21;;;;;;;;;;;;;;;14.77;38.56;93577.19;10451363;28;20390;-81
2024/02/11 03:41:22;;;;;;;;;;;;;;;14.87;38.78;93598.44;10436415;28;19913;-81
2024/02/11 03:46:23;;;;;;;;;;;;;;;14.18;40.75;93628.16;10427696;28;19933;-81
2024/02/11 03:51:24;;;;;;;;;;;;;;;13.98;41.13;93612.66;10417197;28;19967;-79
2024/02/11 03:56:26;;;;;;;;;;;;;;;13.89;41.44;93623.47;10440331;28;20402;-84
2024/02/11 04:01:31;;;;;;;;;;;;;;;13.84;41.46;93610.13;10439929;28;19920;-86
2024/02/11 04:06:34;;;;;;;;;;;;;;;13.56;42.30;93609.72;10455746;28;20307;-85
2024/02/11 04:11:36;;;;;;;;;;;;;;;13.57;42.36;93614.00;10455012;28;19924;-82
2024/02/11 04:16:44;;;;;;;;;;;;;;;13.59;42.07;93627.97;10423427;28;19936;-85
2024/02/11 04:21:45;;;;;;;;;;;;;;;13.47;42.22;93612.44;10438641;28;19917;-81
2024/02/11 04:26:51;;;;;;;;;;;;;;;13.53;41.93;93594.94;10438496;28;19916;-83
2024/02/11 04:31:51;;;;;;;;;;;;;;;13.63;41.33;93607.31;10433272;28;19921;-78
2024/02/11 04:36:51;;;;;;;;;;;;;;;13.89;40.43;93587.59;10432757;28;19931;-80
2024/02/11 04:41:55;;;;;;;;;;;;;;;14.04;40.77;93588.94;10396966;28;20490;-81
2024/02/11 04:47:00;;;;;;;;;;;;;;;13.76;41.65;93598.25;10407421;28;19964;-81
2024/02/11 04:52:01;;;;;;;;;;;;;;;13.63;42.61;93577.63;10429943;28;20304;-78
2024/02/11 04:57:04;;;;;;;;;;;;;;;13.38;42.42;93574.66;10449100;28;20483;-83
2024/02/11 05:02:05;;;;;;;;;;;;;;;13.67;40.95;93606.38;10463746;28;20015;-84
2024/02/11 05:07:07;;;;;;;;;;;;;;;14.08;40.29;93609.63;10426383;28;20056;-80
2024/02/11 05:12:09;;;;;;;;;;;;;;;14.09;40.45;93584.16;10432590;28;19936;-90
2024/02/11 05:17:10;;;;;;;;;;;;;;;14.31;40.43;93585.81;10448282;28;19935;-89
2024/02/11 05:22:10;;;;;;;;;;;;;;;14.32;39.79;93573.13;10427491;28;19943;-84
2024/02/11 05:27:12;;;;;;;;;;;;;;;14.17;40.50;93596.06;10433851;28;19999;-83
2024/02/11 05:32:14;;;;;;;;;;;;;;;14.10;40.52;93595.78;10427478;28;19924;-80
2024/02/11 05:37:16;;;;;;;;;;;;;;;14.17;40.75;93588.75;10419143;28;19921;-84
2024/02/11 05:42:17;;;;;;;;;;;;;;;14.24;40.20;93611.78;10438412;28;19931;-83
2024/02/11 05:47:18;;;;;;;;;;;;;;;14.17;41.08;93613.06;10419789;28;19942;-84
2024/02/11 05:52:18;;;;;;;;;;;;;;;13.97;41.21;93587.56;10460730;28;19925;-83
2024/02/11 05:57:20;;;;;;;;;;;;;;;13.98;41.33;93597.25;10467341;28;19979;-85
2024/02/11 06:02:21;;;;;;;;;;;;;;;14.17;40.57;93564.41;10438534;28;19920;-82
2024/02/11 06:07:21;;;;;;;;;;;;;;;14.42;40.81;93586.25;10411699;28;19924;-81
2024/02/11 06:12:21;;;;;;;;;;;;;;;14.14;41.45;93602.91;10445258;28;19916;-82
2024/02/11 06:17:22;;;;;;;;;;;;;;;13.89;42.43;93617.28;10462232;28;19912;-81
2024/02/11 06:22:25;;;;;;;;;;;;;;;13.61;43.62;93631.16;10415818;28;20215;-81
2024/02/11 06:27:25;;;;;;;;;;;;;;;13.29;44.31;93636.66;10428997;28;19928;-79
2024/02/11 06:32:25;;;;;;;;;;;;;;;13.13;44.63;93649.03;10423924;28;20442;-85
2024/02/11 06:37:26;;;;;;;;;;;;;;;13.21;44.88;93636.69;10389419;28;19963;-79
2024/02/11 06:42:26;;;;;;;;;;;;;;;13.25;45.42;93640.34;10390339;28;19925;-79
2024/02/11 06:47:28;;;;;;;;;;;;;;;13.24;45.35;93622.56;10419863;28;19920;-82
2024/02/11 06:52:28;;;;;;;;;;;;;;;13.28;45.03;93626.19;10406500;28;20315;-80
2024/02/11 06:57:34;;;;;;;;;;;;;;;13.17;45.54;93633.81;10432265;28;19920;-80
2024/02/11 07:02:36;;;;;;;;;;;;;;;13.12;46.21;93642.06;10427508;28;20330;-81
2024/02/11 07:07:42;;;;;;;;;;;;;;;13.15;46.30;93644.91;10417049;28;20387;-82
2024/02/11 07:12:46;;;;;;;;;;;;;;;13.24;47.04;93617.97;10416741;28;20391;-84
2024/02/11 07:17:47;;;;;;;;;;;;;;;13.47;46.31;93623.22;10429921;28;19979;-87
2024/02/11 07:22:48;;;;;;;;;;;;;;;13.40;46.65;93634.50;10413767;28;20014;-76
2024/02/11 07:27:48;;;;;;;;;;;;;;;13.48;47.37;93635.63;10410877;28;19916;-84
2024/02/11 07:32:49;;;;;;;;;;;;;;;13.71;47.04;93611.91;10440428;28;19924;-75
2024/02/11 07:37:51;;;;;;;;;;;;;;;13.73;46.34;93589.97;10421349;28;19925;-79
2024/02/11 07:42:51;;;;;;;;;;;;;;;13.85;46.41;93606.31;10429317;28;19917;-79
2024/02/11 07:47:51;;;;;;;;;;;;;;;14.14;45.59;93607.53;10436516;28;20259;-79
2024/02/11 07:52:52;;;;;;;;;;;;;;;14.10;45.73;93601.19;10449617;28;20345;-80
2024/02/11 07:57:52;;;;;;;;;;;;;;;14.26;46.01;93615.75;10454354;28;19955;-85
2024/02/11 08:02:53;;;;;;;;;;;;;;;14.50;46.01;93619.78;10463391;28;19947;-79
2024/02/11 08:07:54;;;;;;;;;;;;;;;14.68;45.57;93607.00;10458640;28;19913;-83
2024/02/11 08:12:55;;;;;;;;;;;;;;;14.92;45.42;93608.31;10449216;28;19994;-80
2024/02/11 08:18:00;;;;;;;;;;;;;;;15.38;44.64;93606.53;10457823;28;20842;-81
2024/02/11 08:23:01;;;;;;;;;;;;;;;15.58;44.09;93590.59;10463369;28;19913;-85
2024/02/11 08:28:03;;;;;;;;;;;;;;;15.66;44.10;93584.31;10468649;28;19974;-87
2024/02/11 08:33:04;;;;;;;;;;;;;;;15.57;44.19;93602.53;10442856;28;20386;-83
2024/02/11 08:38:04;;;;;;;;;;;;;;;15.55;44.52;93587.41;10474570;28;20023;-82
2024/02/11 08:43:06;;;;;;;;;;;;;;;15.59;44.21;93592.19;10474069;28;19917;-85
2024/02/11 08:48:06;;;;;;;;;;;;;;;15.52;44.77;93588.09;10455643;28;19924;-83
2024/02/11 08:53:07;;;;;;;;;;;;;;;15.37;45.42;93575.16;10474316;28;19917;-84
2024/02/11 08:58:07;;;;;;;;;;;;;;;15.32;46.37;93567.22;10467870;28;19928;-80
2024/02/11 09:03:12;;;;;;;;;;;;;;;15.53;46.64;93572.63;10464580;28;19987;-84
2024/02/11 09:08:15;;;;;;;;;;;;;;;15.55;46.42;93573.09;10436765;28;20368;-85
2024/02/11 09:13:15;;;;;;;;;;;;;;;15.61;46.86;93569.03;10447464;28;19920;-77
2024/02/11 09:18:19;;;;;;;;;;;;;;;15.54;48.40;93583.16;10428718;28;19912;-76
2024/02/11 09:23:19;;;;;;;;;;;;;;;15.62;48.60;93576.03;10456090;28;19962;-83
2024/02/11 09:28:20;;;;;;;;;;;;;;;16.00;48.29;93566.13;10449859;28;20373;-81
2024/02/11 09:33:20;;;;;;;;;;;;;;;16.51;47.31;93560.44;10416511;28;19917;-77
2024/02/11 09:38:21;;;;;;;;;;;;;;;17.22;45.32;93542.03;10423945;28;19924;-78
2024/02/11 09:43:22;;;;;;;;;;;;;;;17.81;42.92;93532.34;10424641;28;20426;-85
2024/02/11 09:48:23;;;;;;;;;;;;;;;17.65;43.36;93531.53;10426469;28;19912;-82
2024/02/11 09:53:25;;;;;;;;;;;;;;;17.76;43.86;93538.84;10441895;28;19921;-82
2024/02/11 09:58:25;;;;;;;;;;;;;;;17.84;43.04;93544.47;10400251;28;19968;-78
2024/02/11 10:03:26;;;;;;;;;;;;;;;18.05;43.48;93519.78;10398954;28;20355;-78
2024/02/11 10:08:27;;;;;;;;;;;;;;;18.72;42.86;93519.03;10411265;28;19963;-80
2024/02/11 10:13:27;;;;;;;;;;;;;;;19.78;41.54;93512.63;10419096;28;19928;-84
2024/02/11 10:18:29;;;;;;;;;;;;;;;23.27;35.49;93474.13;10442512;28;19917;-77
2024/02/11 10:23:29;;;;;;;;;;;;;;;24.93;31.90;93452.38;10385470;28;19917;-77
2024/02/11 10:28:35;;;;;;;;;;;;;;;24.23;32.11;93435.13;10439228;28;19913;-81
2024/02/11 10:33:36;;;;;;;;;;;;;;;24.85;31.23;93432.34;10404696;28;19928;-81
2024/02/11 10:38:37;;;;;;;;;;;;;;;25.06;30.56;93415.00;10425087;28;19925;-83
2024/02/11 10:43:37;;;;;;;;;;;;;;;25.53;30.70;93409.34;10430230;28;19917;-82
2024/02/11 10:48:38;;;;;;;;;;;;;;;28.43;26.83;93392.81;10428539;28;19928;-76
2024/02/11 10:53:45;;;;;;;;;;;;;;;30.77;24.55;93387.09;10426329;28;19921;-81
2024/02/11 10:58:47;;;;;;;;;;;;;;;31.69;23.34;93398.88;10438375;28;20031;-79
2024/02/11 11:03:49;;;;;;;;;;;;;;;32.27;23.77;93401.91;10441012;28;19928;-77
2024/02/11 11:08:50;;;;;;;;;;;;;;;30.94;23.42;93412.03;10457496;28;19913;-76
2024/02/11 11:13:53;;;;;;;;;;;;;;;29.83;24.48;93405.94;10439833;28;19921;-82
2024/02/11 11:18:53;;;;;;;;;;;;;;;30.63;24.00;93399.34;10410151;28;19917;-78
2024/02/11 11:23:58;;;;;;;;;;;;;;;29.75;24.56;93403.75;10404609;28;20375;-78
2024/02/11 11:29:02;;;;;;;;;;;;;;;28.95;24.93;93387.97;10418401;28;19946;-83
2024/02/11 11:34:02;;;;;;;;;;;;;;;28.21;25.38;93378.56;10441587;28;20326;-82
2024/02/11 11:39:06;;;;;;;;;;;;;;;29.30;24.59;93372.69;10409558;28;19937;-77
2024/02/11 11:44:06;;;;;;;;;;;;;;;28.91;24.92;93349.28;10416851;28;20346;-78
2024/02/11 11:49:08;;;;;;;;;;;;;;;27.28;26.21;93339.25;10393010;28;19924;-82
2024/02/11 11:54:09;;;;;;;;;;;;;;;25.94;27.95;93356.38;10418644;28;19920;-82
2024/02/11 11:59:10;;;;;;;;;;;;;;;24.85;29.51;93353.47;10411974;28;20433;-82
2024/02/11 12:04:10;;;;;;;;;;;;;;;23.60;30.92;93355.13;10436992;28;20004;-82
2024/02/11 12:09:14;;;;;;;;;;;;;;;23.03;32.35;93345.56;10413343;28;19978;-77
2024/02/11 12:14:14;;;;;;;;;;;;;;;22.35;32.34;93350.75;10421207;28;19937;-83
2024/02/11 12:19:15;;;;;;;;;;;;;;;22.33;32.45;93340.19;10419823;28;19918;-82
2024/02/11 12:24:15;;;;;;;;;;;;;;;21.82;34.25;93343.72;10430432;28;19921;-82
2024/02/11 12:29:22;;;;;;;;;;;;;;;21.49;34.72;93350.84;10414564;28;19925;-81
2024/02/11 12:34:25;;;;;;;;;;;;;;;21.33;35.36;93353.81;10400369;28;20470;-81
2024/02/11 12:39:28;;;;;;;;;;;;;;;20.90;35.49;93347.88;10405111;28;19917;-83
2024/02/11 12:44:30;;;;;;;;;;;;;;;21.01;36.02;93329.66;10421443;28;19955;-77
2024/02/11 12:49:30;;;;;;;;;;;;;;;20.91;35.93;93324.88;10432980;28;19917;-76
2024/02/11 12:54:32;;;;;;;;;;;;;;;20.28;36.13;93328.00;10436231;28;20585;-81
2024/02/11 12:59:33;;;;;;;;;;;;;;;19.97;37.01;93329.91;10426658;28;20038;-80
2024/02/11 13:04:34;;;;;;;;;;;;;;;20.02;37.28;93334.25;10441540;28;19979;-83
2024/02/11 13:09:34;;;;;;;;;;;;;;;20.11;38.78;93340.25;10395218;28;19928;-81
2024/02/11 13:14:35;;;;;;;;;;;;;;;19.84;40.02;93331.25;10394920;28;19920;-76
2024/02/11 13:19:38;;;;;;;;;;;;;;;19.78;39.99;93327.25;10410814;28;19913;-81
2024/02/11 13:24:39;;;;;;;;;;;;;;;19.78;39.68;93344.38;10403350;28;19913;-81
2024/02/11 13:29:41;;;;;;;;;;;;;;;19.62;40.85;93347.25;10417367;28;19917;-84
2024/02/11 13:34:41;;;;;;;;;;;;;;;19.30;41.49;93347.50;10416889;28;19944;-80
2024/02/11 13:39:42;;;;;;;;;;;;;;;18.38;42.96;93358.94;10426037;28;19913;-76
2024/02/11 13:44:43;;;;;;;;;;;;;;;18.03;44.92;93335.28;10414163;28;19944;-84
2024/02/11 13:49:43;;;;;;;;;;;;;;;18.23;45.00;93319.75;10413680;28;19927;-80
2024/02/11 13:54:43;;;;;;;;;;;;;;;18.22;44.38;93329.09;10394811;28;19924;-80
2024/02/11 13:59:44;;;;;;;;;;;;;;;18.25;44.24;93328.38;10443611;28;19920;-79
2024/02/11 14:04:44;;;;;;;;;;;;;;;18.13;43.48;93350.25;10395959;28;19917;-82
2024/02/11 14:09:45;;;;;;;;;;;;;;;17.75;44.33;93352.47;10407790;28;19928;-81
2024/02/11 14:14:45;;;;;;;;;;;;;;;17.74;45.94;93331.09;10419098;28;19913;-87
2024/02/11 14:19:45;;;;;;;;;;;;;;;17.88;45.49;93323.25;10415443;28;19920;-80
2024/02/11 14:24:45;;;;;;;;;;;;;;;18.00;45.56;93325.13;10432516;28;19913;-76
2024/02/11 14:29:46;;;;;;;;;;;;;;;18.09;45.58;93336.56;10431886;28;19917;-77
2024/02/11 14:34:48;;;;;;;;;;;;;;;18.08;45.38;93328.75;10422912;28;19929;-78
2024/02/11 14:39:49;;;;;;;;;;;;;;;18.04;44.64;93319.75;10424351;28;19916;-81
2024/02/11 14:44:52;;;;;;;;;;;;;;;17.87;43.82;93337.97;10402891;28;19913;-86
2024/02/11 14:49:54;;;;;;;;;;;;;;;17.45;44.10;93316.81;10396272;28;19928;-81
2024/02/11 14:54:56;;;;;;;;;;;;;;;17.49;44.02;93322.34;10424703;28;20346;-82
2024/02/11 14:59:56;;;;;;;;;;;;;;;17.30;44.32;93318.41;10442565;28;19913;-82
2024/02/11 15:04:57;;;;;;;;;;;;;;;17.25;44.65;93324.88;10427207;28;19916;-82
2024/02/11 15:09:57;;;;;;;;;;;;;;;17.15;45.88;93341.72;10449990;28;19917;-79
2024/02/11 15:14:58;;;;;;;;;;;;;;;17.04;46.61;93349.56;10436957;28;19923;-80
2024/02/11 15:19:58;;;;;;;;;;;;;;;16.91;47.12;93329.84;10457375;28;19928;-80
2024/02/11 15:24:58;;;;;;;;;;;;;;;16.89;47.07;93320.47;10437219;28;19920;-78
2024/02/11 15:29:58;;;;;;;;;;;;;;;16.87;47.06;93317.28;10464096;28;19927;-81
2024/02/11 15:35:00;;;;;;;;;;;;;;;16.90;47.58;93349.97;10459606;28;19932;-80
2024/02/11 15:40:00;;;;;;;;;;;;;;;16.75;48.34;93364.28;10437048;28;19928;-78
2024/02/11 15:45:03;;;;;;;;;;;;;;;16.84;49.01;93351.34;10462158;28;19913;-83
2024/02/11 15:50:04;;;;;;;;;;;;;;;16.69;50.47;93338.53;10439599;28;19924;-79
2024/02/11 15:55:06;;;;;;;;;;;;;;;16.40;53.01;93348.56;10462974;28;19920;-84
2024/02/11 16:00:09;;;;;;;;;;;;;;;16.35;54.04;93378.63;10461932;28;19970;-78
2024/02/11 16:05:10;;;;;;;;;;;;;;;16.20;54.55;93367.38;10454366;28;19913;-78
2024/02/11 16:10:11;;;;;;;;;;;;;;;16.23;54.51;93347.72;10457659;28;19962;-81
2024/02/11 16:15:11;;;;;;;;;;;;;;;16.22;54.86;93367.81;10466003;28;20371;-81
2024/02/11 16:20:12;;;;;;;;;;;;;;;16.18;54.43;93364.22;10456948;28;20457;-77
2024/02/11 16:25:13;;;;;;;;;;;;;;;15.94;56.74;93362.34;10454378;28;20379;-80
2024/02/11 16:30:13;;;;;;;;;;;;;;;15.88;60.52;93388.88;10460101;28;19927;-80
2024/02/11 16:35:18;;;;;;;;;;;;;;;15.88;60.14;93399.72;10435783;28;19929;-81
2024/02/11 16:40:19;;;;;;;;;;;;;;;15.76;60.95;93377.22;10462324;28;19978;-81
2024/02/11 16:45:19;;;;;;;;;;;;;;;15.70;61.73;93372.03;10465338;28;20338;-82
2024/02/11 16:50:21;;;;;;;;;;;;;;;15.60;65.43;93396.06;10440246;28;20705;-80
2024/02/11 16:55:21;;;;;;;;;;;;;;;15.47;67.49;93381.72;10441435;28;19913;-79
2024/02/11 17:00:21;;;;;;;;;;;;;;;15.18;78.34;93427.59;10460090;28;19912;-76
2024/02/11 17:05:21;;;;;;;;;;;;;;;14.96;87.90;93428.75;10461865;28;20099;-82
2024/02/11 17:10:22;;;;;;;;;;;;;;;14.97;92.03;93424.94;10461229;28;20452;-81
2024/02/11 17:15:22;;;;;;;;;;;;;;;14.85;100.00;93433.00;10462635;28;20007;-78
2024/02/11 17:20:22;;;;;;;;;;;;;;;14.40;100.00;93447.13;10464244;28;19916;-75
2024/02/11 17:25:24;;;;;;;;;;;;;;;14.46;100.00;93440.44;10441925;28;19919;-79
2024/02/11 17:30:25;;;;;;;;;;;;;;;14.23;100.00;93456.16;10453938;28;19917;-77
2024/02/11 17:35:28;;;;;;;;;;;;;;;13.98;100.00;93489.19;10458789;28;19925;-77
2024/02/11 17:40:29;;;;;;;;;;;;;;;13.64;100.00;93500.91;10458048;28;19921;-77
2024/02/11 17:45:30;;;;;;;;;;;;;;;13.40;100.00;93494.16;10460162;28;19989;-83
2024/02/11 17:50:30;;;;;;;;;;;;;;;13.27;100.00;93500.50;10454093;28;19925;-79
2024/02/11 17:55:31;;;;;;;;;;;;;;;13.14;100.00;93494.97;10457255;28;20350;-76
2024/02/11 18:00:33;;;;;;;;;;;;;;;12.88;100.00;93488.78;10461740;28;19947;-77
2024/02/11 18:05:33;;;;;;;;;;;;;;;12.75;100.00;93499.41;10458193;28;19928;-81
2024/02/11 18:10:37;;;;;;;;;;;;;;;12.68;100.00;93501.81;10443851;28;19917;-81
2024/02/11 18:15:39;;;;;;;;;;;;;;;12.60;100.00;93489.91;10455953;28;20389;-77
2024/02/11 18:20:39;;;;;;;;;;;;;;;12.52;100.00;93496.09;10453986;28;19921;-79
2024/02/11 18:25:40;;;;;;;;;;;;;;;12.34;100.00;93514.13;10454880;28;19913;-76
2024/02/11 18:30:40;;;;;;;;;;;;;;;12.06;100.00;93530.53;10457688;28;19947;-84
2024/02/11 18:35:42;;;;;;;;;;;;;;;11.88;100.00;93553.88;10459952;28;20335;-76
2024/02/11 18:40:42;;;;;;;;;;;;;;;11.99;100.00;93543.66;10447812;28;20019;-80
2024/02/11 18:45:43;;;;;;;;;;;;;;;12.06;100.00;93541.31;10452403;28;19925;-77
2024/02/11 18:50:44;;;;;;;;;;;;;;;12.13;100.00;93551.63;10455898;28;19924;-77
2024/02/11 18:55:46;;;;;;;;;;;;;;;12.14;100.00;93551.31;10455772;28;19988;-78
2024/02/11 19:00:48;;;;;;;;;;;;;;;12.28;100.00;93558.50;10456071;28;19916;-78
2024/02/11 19:05:52;;;;;;;;;;;;;;;12.34;100.00;93589.56;10442264;28;19924;-78
2024/02/11 19:10:53;;;;;;;;;;;;;;;12.43;100.00;93622.72;10456052;28;19939;-77
2024/02/11 19:15:55;;;;;;;;;;;;;;;11.84;100.00;93546.75;10456555;28;19920;-84
2024/02/11 19:20:56;;;;;;;;;;;;;;;11.40;100.00;93600.28;10459456;28;20429;-82
2024/02/11 19:25:56;;;;;;;;;;;;;;;11.06;100.00;93594.34;10457864;28;19912;-76
2024/02/11 19:30:57;;;;;;;;;;;;;;;11.05;100.00;93608.09;10457606;28;20454;-81
2024/02/11 19:35:58;;;;;;;;;;;;;;;11.10;100.00;93629.50;10440101;28;19924;-83
2024/02/11 19:40:58;;;;;;;;;;;;;;;10.97;100.00;93635.69;10455634;28;19925;-77
2024/02/11 19:46:01;;;;;;;;;;;;;;;10.64;100.00;93623.22;10424567;28;20298;-83
2024/02/11 19:51:01;;;;;;;;;;;;;;;10.54;100.00;93636.88;10401397;28;19925;-81
2024/02/11 19:56:04;;;;;;;;;;;;;;;10.45;100.00;93641.34;10407658;28;19917;-81
2024/02/11 20:01:05;;;;;;;;;;;;;;;10.22;100.00;93649.28;10426284;28;19913;-82
2024/02/11 20:06:06;;;;;;;;;;;;;;;10.13;100.00;93653.72;10417779;28;19917;-81
2024/02/11 20:11:08;;;;;;;;;;;;;;;9.87;100.00;93665.72;10411866;28;19970;-79
2024/02/11 20:16:12;;;;;;;;;;;;;;;9.86;100.00;93666.03;10411830;28;19924;-80
2024/02/11 20:21:12;;;;;;;;;;;;;;;9.81;100.00;93656.19;10427663;28;19916;-81
2024/02/11 20:26:16;;;;;;;;;;;;;;;9.55;100.00;93613.66;10421132;28;20713;-76
2024/02/11 20:31:16;;;;;;;;;;;;;;;9.49;100.00;93587.22;10419504;28;19961;-84
2024/02/11 20:36:18;;;;;;;;;;;;;;;9.39;100.00;93618.50;10426648;28;20459;-80
2024/02/11 20:41:19;;;;;;;;;;;;;;;9.38;100.00;93630.31;10439030;28;19959;-82
2024/02/11 20:46:19;;;;;;;;;;;;;;;9.26;100.00;93605.84;10415484;28;20011;-79
2024/02/11 20:51:20;;;;;;;;;;;;;;;9.25;100.00;93598.88;10443234;28;19917;-80
2024/02/11 20:56:22;;;;;;;;;;;;;;;9.15;100.00;93588.31;10430555;28;19963;-77
2024/02/11 21:01:23;;;;;;;;;;;;;;;9.07;100.00;93601.31;10440389;28;19917;-88
2024/02/11 21:06:24;;;;;;;;;;;;;;;8.68;100.00;93625.72;10423730;28;20434;-85
2024/02/11 21:11:26;;;;;;;;;;;;;;;8.69;100.00;93563.81;10445243;28;20039;-81
2024/02/11 21:16:26;;;;;;;;;;;;;;;8.58;100.00;93585.66;10400411;28;20311;-76
2024/02/11 21:21:26;;;;;;;;;;;;;;;8.49;100.00;93594.34;10427036;28;19919;-78
2024/02/11 21:26:27;;;;;;;;;;;;;;;8.52;100.00;93569.66;10438127;28;19924;-77
2024/02/11 21:31:27;;;;;;;;;;;;;;;8.31;100.00;93606.56;10423986;28;19917;-81
2024/02/11 21:36:28;;;;;;;;;;;;;;;8.51;100.00;93568.09;10437481;28;20458;-83
2024/02/11 21:41:28;;;;;;;;;;;;;;;8.66;100.00;93563.59;10403383;28;19928;-82
2024/02/11 21:46:29;;;;;;;;;;;;;;;8.45;100.00;93609.38;10391938;28;20411;-78
2024/02/11 21:51:34;;;;;;;;;;;;;;;8.52;100.00;93579.56;10408707;28;19917;-77
2024/02/11 21:56:34;;;;;;;;;;;;;;;8.47;100.00;93604.56;10412072;28;19923;-82
2024/02/11 22:01:35;;;;;;;;;;;;;;;8.69;100.00;93574.53;10395658;28;19943;-83
2024/02/11 22:06:36;;;;;;;;;;;;;;;8.53;100.00;93581.97;10412998;28;19921;-77
2024/02/11 22:11:37;;;;;;;;;;;;;;;8.51;100.00;93600.22;10420193;28;19921;-83
2024/02/11 22:16:38;;;;;;;;;;;;;;;8.69;100.00;93605.88;10416218;28;20653;-80
2024/02/11 22:21:39;;;;;;;;;;;;;;;8.68;100.00;93613.13;10459518;28;19935;-82
2024/02/11 22:26:41;;;;;;;;;;;;;;;8.63;100.00;93618.53;10446431;28;19936;-78
2024/02/11 22:31:44;;;;;;;;;;;;;;;8.78;100.00;93616.75;10395332;28;20027;-83
2024/02/11 22:36:44;;;;;;;;;;;;;;;8.90;100.00;93579.56;10419867;28;19928;-87
2024/02/11 22:41:45;;;;;;;;;;;;;;;8.89;100.00;93578.00;10443512;28;19912;-83
2024/02/11 22:46:45;;;;;;;;;;;;;;;8.94;100.00;93587.84;10447961;28;19917;-77
2024/02/11 22:51:46;;;;;;;;;;;;;;;8.91;100.00;93599.16;10426149;28;20074;-81
2024/02/11 22:56:46;;;;;;;;;;;;;;;8.70;100.00;93607.47;10426212;28;19912;-79
2024/02/11 23:01:49;;;;;;;;;;;;;;;8.85;100.00;93593.84;10416623;28;19979;-85
2024/02/11 23:06:49;;;;;;;;;;;;;;;8.89;100.00;93594.06;10413100;28;20007;-81
2024/02/11 23:11:51;;;;;;;;;;;;;;;8.94;100.00;93599.34;10404595;28;20058;-78
2024/02/11 23:16:51;;;;;;;;;;;;;;;8.57;100.00;93576.84;10419428;28;20266;-78
2024/02/11 23:21:52;;;;;;;;;;;;;;;8.12;100.00;93576.31;10424784;28;20394;-78
2024/02/11 23:27:05;;;;;;;;;;;;;;;7.80;100.00;93609.81;10419127;28;19938;-82
2024/02/11 23:32:07;;;;;;;;;;;;;;;7.46;100.00;93629.41;10440291;28;20252;-81
2024/02/11 23:37:07;;;;;;;;;;;;;;;7.51;100.00;93607.97;10421212;28;19932;-77
2024/02/11 23:42:08;;;;;;;;;;;;;;;7.68;100.00;93597.63;10458877;28;19920;-78
2024/02/11 23:47:09;;;;;;;;;;;;;;;7.64;100.00;93593.94;10422284;28;20058;-77
2024/02/11 23:52:11;;;;;;;;;;;;;;;7.72;100.00;93586.38;10413984;28;19920;-80
2024/02/11 23:57:16;;;;;;;;;;;;;;;7.81;100.00;93598.06;10428969;28;19912;-79
